KEGE

Eagle County Regional Airport

Eagle, Colorado, USA
KEGE 261120Z 2612/2712 VRB03KT P6SM SKC FM262200 34007KT P6SM SKC FM262300 31007KT P6SM SKC FM270200 02005KT P6SM SKC AMD LTD TO CLD VIS AND WIND TIL 261300
Issued Valid From Valid To
Apr-26 @ 11:20 UTC
(2 hours ago)
Apr-26 @ 12:00 UTC
(2 hours ago)
Apr-27 @ 12:00 UTC
(in 22 hours)
Apr-26 @ 12:00 to Apr-26 @ 22:00
KEGE 261120Z 2612/2712 VRB03KT P6SM SKC
Wind Visibility Clouds
Variable at 3 knots Greater than 6 miles
  • Clear skies
From Apr-26 @ 22:00 to Apr-26 @ 23:00
FM262200 34007KT P6SM SKC
Wind Visibility Clouds
340° at 7 knots Greater than 6 miles
  • Clear skies
From Apr-26 @ 23:00 to Apr-27 @ 02:00
FM262300 31007KT P6SM SKC
Wind Visibility Clouds
310° at 7 knots Greater than 6 miles
  • Clear skies
From Apr-27 @ 02:00 to Apr-27 @ 12:00
FM270200 02005KT P6SM SKC AMD LTD TO CLD VIS AND WIND TIL 261300
Wind Visibility Clouds
20° at 5 knots Greater than 6 miles
  • Clear skies
KEGE 261120Z 2612/2712 VRB03KT P6SM SKC FM262200 34007KT P6SM SKC FM262300 31007KT P6SM SKC FM270200 02005KT P6SM SKC AMD LTD TO CLD VIS AND WIND TIL 261300
Issued Apr-26 @ 11:20 UTC
(2 hours ago)
Valid From Apr-26 @ 12:00 UTC
(2 hours ago)
Valid To Apr-27 @ 12:00 UTC
(in 22 hours)
Apr-26 @ 12:00 - Apr-26 @ 22:00
Wind Visibility
Variable at 3 knots Greater than 6 miles
Clouds
  • Clear skies
From Apr-26 @ 22:00 - Apr-26 @ 23:00
Wind Visibility
340° at 7 knots Greater than 6 miles
Clouds
  • Clear skies
From Apr-26 @ 23:00 - Apr-27 @ 02:00
Wind Visibility
310° at 7 knots Greater than 6 miles
Clouds
  • Clear skies
From Apr-27 @ 02:00 - Apr-27 @ 12:00
Wind Visibility
20° at 5 knots Greater than 6 miles
Clouds
  • Clear skies